Time;durP1;ratioP1;P1;durP2;ratioP2;P2;SDS_P1;SDS_P2;PMS_P1;PMS_P2;Temp;Humidity;BMP_temperature;BMP_pressure;BME280_temperature;BME280_humidity;BME280_pressure;Samples;Min_cycle;Max_cycle;Signal;HPM_P1;HPM_P2
2022/05/31 00:00:22;;;;;;;3.05;1.63;;;;;;;10.80;73.04;96157.22;5018373;28;20050;-65
2022/05/31 00:02:48;;;;;;;3.17;1.70;;;;;;;10.81;73.14;96154.13;5006039;28;20048;-66
2022/05/31 00:05:13;;;;;;;4.75;1.73;;;;;;;10.81;73.31;96156.84;5018884;28;20052;-65
2022/05/31 00:07:40;;;;;;;4.10;1.92;;;;;;;10.73;73.85;96152.47;5023005;28;20045;-66
2022/05/31 00:10:08;;;;;;;6.30;2.20;;;;;;;10.71;74.15;96152.88;5018562;28;20048;-65
2022/05/31 00:12:34;;;;;;;3.03;1.80;;;;;;;10.74;74.10;96150.53;5036378;28;20053;-65
2022/05/31 00:15:00;;;;;;;3.15;1.77;;;;;;;10.84;74.09;96141.59;5005575;28;20037;-66
2022/05/31 00:17:26;;;;;;;5.05;2.00;;;;;;;10.85;74.25;96138.47;5018520;28;20041;-65
2022/05/31 00:19:52;;;;;;;6.60;2.00;;;;;;;10.86;74.49;96147.50;5023482;28;20145;-64
2022/05/31 00:22:21;;;;;;;4.40;1.85;;;;;;;10.90;74.01;96145.56;5018756;28;20144;-66
2022/05/31 00:24:47;;;;;;;4.97;2.40;;;;;;;10.87;74.38;96138.88;5005851;28;20086;-65
2022/05/31 00:27:17;;;;;;;4.85;2.00;;;;;;;10.84;74.57;96141.59;5017316;28;20402;-64
2022/05/31 00:29:42;;;;;;;4.65;2.30;;;;;;;10.94;74.02;96146.34;5023804;28;20484;-65
2022/05/31 00:32:10;;;;;;;7.07;2.10;;;;;;;11.07;73.24;96152.31;5018322;28;20037;-66
2022/05/31 00:34:40;;;;;;;3.88;1.80;;;;;;;11.08;73.28;96145.66;5022758;28;20033;-64
2022/05/31 00:37:06;;;;;;;;;;;;;;;11.13;73.29;96148.03;5017490;28;20132;-63
2022/05/31 00:39:31;;;;;;;3.22;1.83;;;;;;;11.16;73.22;96143.75;5022672;28;20350;-63
2022/05/31 00:42:04;;;;;;;4.63;1.90;;;;;;;11.23;72.90;96132.81;5022079;28;20450;-63
2022/05/31 00:44:31;;;;;;;3.25;1.70;;;;;;;11.27;72.26;96145.38;5021730;28;20046;-65
2022/05/31 00:47:07;;;;;;;4.60;1.63;;;;;;;11.27;72.64;96148.13;5022668;28;20037;-64
2022/05/31 00:49:43;;;;;;;2.30;1.70;;;;;;;11.25;72.61;96147.72;5022024;28;20124;-64
2022/05/31 00:52:15;;;;;;;4.18;2.58;;;;;;;11.27;72.70;96139.09;5013346;28;20038;-64
2022/05/31 00:54:47;;;;;;;6.63;2.00;;;;;;;11.21;73.09;96138.69;5003451;28;20499;-64
2022/05/31 00:57:13;;;;;;;2.30;1.63;;;;;;;11.22;72.89;96125.78;4997759;28;20053;-63
2022/05/31 00:59:47;;;;;;;2.67;1.73;;;;;;;11.31;72.61;96139.09;5003384;28;20038;-64
2022/05/31 01:02:15;;;;;;;3.28;1.83;;;;;;;11.29;72.80;96145.00;4997439;28;20438;-65
2022/05/31 01:04:49;;;;;;;3.88;1.88;;;;;;;11.34;72.16;96149.31;5002670;28;20046;-64
2022/05/31 01:07:15;;;;;;;2.60;1.90;;;;;;;11.29;72.59;96143.03;4996830;28;20129;-64
2022/05/31 01:09:41;;;;;;;4.72;1.85;;;;;;;11.28;72.77;96138.72;5002322;28;20045;-63
2022/05/31 01:12:07;;;;;;;3.08;2.08;;;;;;;11.29;72.68;96140.28;4996758;28;20487;-64
2022/05/31 01:14:32;;;;;;;3.83;1.90;;;;;;;11.28;73.05;96140.66;5002276;28;20042;-66
2022/05/31 01:17:02;;;;;;;4.20;2.05;;;;;;;11.26;73.02;96141.06;4998644;28;20487;-64
2022/05/31 01:22:12;;;;;;;4.40;1.77;;;;;;;11.09;74.45;96128.84;4997466;28;20057;-66
2022/05/31 01:25:20;;;;;;;2.88;1.45;;;;;;;11.12;73.76;96131.97;5002137;28;20042;-66
2022/05/31 01:27:53;;;;;;;3.33;1.90;;;;;;;11.16;73.45;96138.25;4942812;28;20497;-65
2022/05/31 01:30:19;;;;;;;4.10;2.00;;;;;;;11.08;73.82;96157.41;4996563;28;20049;-65
2022/05/31 01:33:03;;;;;;;7.60;2.33;;;;;;;11.18;73.51;96166.88;5002692;28;20038;-65
2022/05/31 01:35:31;;;;;;;3.20;1.70;;;;;;;11.13;74.08;96142.56;4990423;28;20120;-65
2022/05/31 01:38:18;;;;;;;3.45;1.77;;;;;;;11.03;75.44;96151.50;4993646;28;20057;-65
2022/05/31 01:40:48;;;;;;;3.25;1.60;;;;;;;11.02;75.61;96171.84;5003705;28;20182;-65
2022/05/31 01:43:13;;;;;;;4.70;1.90;;;;;;;11.09;75.07;96175.44;4996441;28;20091;-66
2022/05/31 01:45:51;;;;;;;4.07;2.13;;;;;;;11.02;74.53;96155.41;5001129;28;20132;-65
2022/05/31 01:48:17;;;;;;;2.50;1.75;;;;;;;11.00;75.90;96158.53;4996741;28;20064;-64
2022/05/31 01:50:45;;;;;;;2.85;1.52;;;;;;;10.93;76.23;96157.69;5001048;28;20434;-64
2022/05/31 01:53:13;;;;;;;4.53;1.90;;;;;;;10.82;76.55;96154.88;4995391;28;20395;-64
2022/05/31 01:55:40;;;;;;;6.70;2.28;;;;;;;10.80;77.21;96155.25;5000599;28;20502;-65
2022/05/31 01:58:13;;;;;;;3.17;1.70;;;;;;;10.83;77.29;96165.47;4979339;28;20100;-66
2022/05/31 02:00:39;;;;;;;7.30;2.63;;;;;;;10.82;77.28;96154.88;5001922;28;20121;-66
2022/05/31 02:03:06;;;;;;;4.28;1.80;;;;;;;10.78;78.38;96165.03;4997813;28;20128;-66
2022/05/31 02:05:32;;;;;;;3.58;1.67;;;;;;;10.76;78.36;96156.44;5001432;28;20050;-65
2022/05/31 02:08:00;;;;;;;4.90;1.92;;;;;;;10.84;78.16;96160.78;4992322;28;20053;-66
2022/05/31 02:10:28;;;;;;;1.90;1.40;;;;;;;10.81;78.17;96165.06;4996895;28;20045;-64
2022/05/31 02:12:54;;;;;;;2.80;1.60;;;;;;;10.90;76.90;96168.25;5000646;28;20537;-65
2022/05/31 02:15:21;;;;;;;5.72;2.00;;;;;;;10.92;77.75;96176.09;5000673;28;20041;-66
2022/05/31 02:17:46;;;;;;;7.15;2.05;;;;;;;10.90;77.51;96167.47;5006931;28;20042;-66
2022/05/31 02:20:12;;;;;;;5.07;1.85;;;;;;;10.91;77.90;96180.00;4978384;28;20045;-64
2022/05/31 02:22:38;;;;;;;5.20;1.90;;;;;;;10.93;78.52;96174.94;4982638;28;20042;-65
2022/05/31 02:25:04;;;;;;;2.70;1.63;;;;;;;10.95;78.50;96185.50;5017900;28;20046;-66
2022/05/31 02:27:30;;;;;;;4.72;1.83;;;;;;;11.00;78.58;96180.47;5012476;28;20042;-65
2022/05/31 02:29:56;;;;;;;3.63;1.80;;;;;;;11.00;78.91;96180.47;5008542;28;20141;-65
2022/05/31 02:32:22;;;;;;;3.75;1.70;;;;;;;11.01;78.22;96182.03;4997105;28;20050;-66
2022/05/31 02:34:50;;;;;;;3.08;1.95;;;;;;;11.00;79.14;96183.22;4999295;28;20446;-65
2022/05/31 02:37:17;;;;;;;6.85;1.85;;;;;;;11.00;78.86;96179.66;4989156;28;20026;-65
2022/05/31 02:39:43;;;;;;;3.20;1.70;;;;;;;11.02;78.30;96185.53;5000910;28;20486;-65
2022/05/31 02:42:09;;;;;;;4.40;1.70;;;;;;;11.20;78.18;96193.88;4996250;28;20101;-65
2022/05/31 02:44:35;;;;;;;2.80;2.03;;;;;;;11.43;76.39;96199.91;4992853;28;20081;-67
2022/05/31 02:47:01;;;;;;;6.78;2.20;;;;;;;11.33;76.56;96195.13;5001282;28;20118;-66
2022/05/31 02:49:27;;;;;;;2.63;1.67;;;;;;;11.18;77.80;96190.72;4989500;28;20042;-66
2022/05/31 02:51:53;;;;;;;4.80;1.60;;;;;;;11.13;78.22;96180.94;5014800;28;20045;-66
2022/05/31 02:54:19;;;;;;;6.28;1.92;;;;;;;11.18;78.22;96199.75;5009465;28;20041;-65
2022/05/31 02:56:46;;;;;;;2.25;1.63;;;;;;;11.20;78.32;96196.63;5000949;28;20538;-63
2022/05/31 02:59:12;;;;;;;3.40;1.50;;;;;;;11.31;78.95;96192.00;4995709;28;20056;-65
2022/05/31 03:01:40;;;;;;;4.97;2.20;;;;;;;11.46;78.95;96196.38;5001207;28;20131;-63
2022/05/31 03:04:07;;;;;;;5.25;2.10;;;;;;;11.34;79.18;96188.47;4995713;28;20161;-65
2022/05/31 03:06:32;;;;;;;2.63;1.80;;;;;;;11.35;79.77;96192.78;5002280;28;20509;-65
2022/05/31 03:08:58;;;;;;;5.57;1.70;;;;;;;11.41;80.60;96191.25;4996479;28;20042;-65
2022/05/31 03:11:39;;;;;;;4.32;1.80;;;;;;;11.38;81.53;96191.22;4999537;28;20042;-64
2022/05/31 03:14:14;;;;;;;4.13;2.30;;;;;;;11.22;83.87;96188.81;5000488;28;20045;-66
2022/05/31 03:16:42;;;;;;;3.03;1.85;;;;;;;10.86;86.64;96181.16;5004489;28;20049;-64
2022/05/31 03:19:13;;;;;;;4.43;2.20;;;;;;;10.65;89.10;96190.00;5007287;28;20049;-65
2022/05/31 03:21:44;;;;;;;2.50;1.92;;;;;;;10.47;94.74;96191.81;5004308;28;20081;-66
2022/05/31 03:24:23;;;;;;;3.72;2.20;;;;;;;10.46;94.62;96196.50;4998044;28;20048;-64
2022/05/31 03:26:52;;;;;;;3.63;1.98;;;;;;;10.50;90.76;96197.31;5003551;28;20495;-65
2022/05/31 03:29:17;;;;;;;11.57;2.08;;;;;;;10.61;90.03;96193.88;4999439;28;20041;-65
2022/05/31 03:31:43;;;;;;;3.85;1.77;;;;;;;10.65;88.77;96202.91;4985511;28;20095;-65
2022/05/31 03:34:09;;;;;;;4.03;1.90;;;;;;;10.67;88.73;96203.31;4994084;28;20092;-65
2022/05/31 03:36:34;;;;;;;4.57;1.80;;;;;;;10.82;89.02;96218.69;5000179;28;20049;-66
2022/05/31 03:39:00;;;;;;;3.75;2.15;;;;;;;11.03;92.09;96212.56;4991808;28;20041;-65
2022/05/31 03:41:26;;;;;;;4.55;2.05;;;;;;;10.95;93.01;96205.47;4999094;28;20431;-65
2022/05/31 03:43:51;;;;;;;2.78;1.92;;;;;;;10.99;93.69;96205.50;5003984;28;20045;-65
2022/05/31 03:46:17;;;;;;;7.50;2.47;;;;;;;11.13;92.32;96204.78;4997979;28;20046;-64
2022/05/31 03:48:42;;;;;;;3.72;1.75;;;;;;;11.16;91.76;96202.06;4995469;28;20065;-65
2022/05/31 03:51:11;;;;;;;4.68;2.30;;;;;;;11.36;90.59;96207.28;4999420;28;20127;-65
2022/05/31 03:53:37;;;;;;;3.28;2.35;;;;;;;11.33;91.45;96213.56;4986197;28;20048;-65
2022/05/31 03:56:05;;;;;;;3.88;2.20;;;;;;;11.34;91.31;96220.59;5001011;28;20088;-66
2022/05/31 03:58:31;;;;;;;5.57;2.20;;;;;;;11.36;90.86;96216.31;5003664;28;20038;-65
2022/05/31 04:00:57;;;;;;;4.00;2.28;;;;;;;11.43;90.47;96213.63;5002374;28;20061;-64
2022/05/31 04:03:23;;;;;;;4.20;2.33;;;;;;;11.24;90.75;96211.16;4993188;28;20719;-65
2022/05/31 04:05:49;;;;;;;4.05;2.50;;;;;;;11.21;92.35;96209.16;5002684;28;20038;-63
2022/05/31 04:08:15;;;;;;;6.28;3.55;;;;;;;11.02;92.61;96205.53;4998832;28;20092;-63
2022/05/31 04:10:43;;;;;;;5.80;2.45;;;;;;;10.97;93.96;96203.16;5003861;28;20046;-63
2022/05/31 04:13:10;;;;;;;5.65;3.08;;;;;;;10.72;93.78;96211.19;4990328;28;20096;-65
2022/05/31 04:15:35;;;;;;;5.80;2.50;;;;;;;10.56;96.46;96205.97;5002508;28;20104;-63
2022/05/31 04:18:02;;;;;;;5.90;2.88;;;;;;;10.63;96.77;96208.75;5004284;28;20495;-65
2022/05/31 04:20:28;;;;;;;5.10;2.67;;;;;;;10.83;96.17;96205.78;5008328;28;20049;-63
2022/05/31 04:23:58;;;;;;;5.07;2.70;;;;;;;10.94;95.46;96208.59;5007209;28;20554;-62
2022/05/31 04:25:43;;;;;;;7.43;2.80;;;;;;;11.06;95.06;96217.28;5015592;28;20061;-63
2022/05/31 04:28:09;;;;;;;4.65;2.90;;;;;;;11.23;94.07;96217.78;5002996;28;20048;-66
2022/05/31 04:30:35;;;;;;;5.90;2.80;;;;;;;11.21;94.33;96218.16;5009214;28;20522;-65
2022/05/31 04:33:01;;;;;;;9.13;3.17;;;;;;;11.23;94.27;96232.28;5003149;28;20046;-65
2022/05/31 04:35:27;;;;;;;3.78;2.58;;;;;;;11.36;93.17;96224.53;4996906;28;20042;-64
2022/05/31 04:37:53;;;;;;;4.55;2.67;;;;;;;11.38;92.78;96221.38;5002276;28;20398;-64
2022/05/31 04:40:18;;;;;;;5.45;2.90;;;;;;;11.47;92.52;96233.59;4997903;28;20435;-63
2022/05/31 04:42:44;;;;;;;4.57;2.80;;;;;;;11.54;92.25;96235.59;5002034;28;20057;-64
2022/05/31 04:45:09;;;;;;;5.07;2.35;;;;;;;11.67;91.05;96230.56;4998563;28;20076;-65
2022/05/31 04:47:35;;;;;;;5.80;2.30;;;;;;;11.72;90.35;96230.19;5003367;28;20128;-69
2022/05/31 04:50:01;;;;;;;4.55;2.58;;;;;;;11.72;89.93;96230.19;5001649;28;20173;-66
2022/05/31 04:52:26;;;;;;;4.88;3.05;;;;;;;11.28;94.25;96220.16;4991487;28;20050;-64
2022/05/31 04:54:52;;;;;;;4.07;2.47;;;;;;;11.10;96.38;96222.81;5001989;28;20506;-65
2022/05/31 04:57:18;;;;;;;5.63;2.13;;;;;;;11.28;96.83;96226.44;4987836;28;20044;-64
2022/05/31 04:59:45;;;;;;;6.80;2.78;;;;;;;11.52;94.55;96231.66;5002739;28;20124;-64
2022/05/31 05:02:10;;;;;;;4.75;2.50;;;;;;;11.72;93.02;96237.63;4988766;28;20048;-66
2022/05/31 05:04:36;;;;;;;5.35;2.13;;;;;;;11.91;91.77;96245.59;4993722;28;20054;-65
2022/05/31 05:07:02;;;;;;;5.35;2.47;;;;;;;11.98;90.53;96253.84;5001830;28;20049;-65
2022/05/31 05:09:27;;;;;;;5.35;2.75;;;;;;;12.01;90.77;96244.03;4991666;28;20382;-66
2022/05/31 05:11:52;;;;;;;8.60;2.90;;;;;;;11.59;91.52;96234.44;5002155;28;20681;-66
2022/05/31 05:14:18;;;;;;;5.97;2.42;;;;;;;11.13;97.78;96222.03;4996547;28;20041;-65
2022/05/31 05:16:44;;;;;;;5.88;3.20;;;;;;;11.22;98.35;96222.50;5001196;28;20125;-67
2022/05/31 05:19:09;;;;;;;4.88;2.30;;;;;;;11.43;95.68;96221.84;4991555;28;20054;-65
2022/05/31 05:21:34;;;;;;;5.40;2.30;;;;;;;11.75;94.32;96214.91;4999340;28;20124;-64
2022/05/31 05:24:00;;;;;;;8.77;3.03;;;;;;;12.21;90.52;96217.06;5001738;28;20057;-67
2022/05/31 05:26:25;;;;;;;2.75;1.55;;;;;;;12.71;85.38;96224.56;4994927;28;20041;-66
2022/05/31 05:31:35;;;;;;;5.68;2.25;;;;;;;12.55;81.83;96230.44;5001898;28;20108;-66
2022/05/31 05:34:02;;;;;;;3.67;1.67;;;;;;;12.64;83.99;96225.34;5000896;28;20037;-67
2022/05/31 05:36:28;;;;;;;4.40;1.85;;;;;;;12.18;83.46;96223.31;4997618;28;20854;-67
2022/05/31 05:38:54;;;;;;;4.88;2.05;;;;;;;11.87;84.53;96225.56;4998864;28;20045;-67
2022/05/31 05:41:21;;;;;;;4.50;2.38;;;;;;;11.58;86.78;96230.91;4991843;28;20398;-66
2022/05/31 05:43:46;;;;;;;3.60;1.83;;;;;;;11.76;87.98;96224.72;5001589;28;20064;-66
2022/05/31 05:46:24;;;;;;;3.85;2.22;;;;;;;12.19;84.87;96228.44;4995934;28;20487;-68
2022/05/31 05:48:50;;;;;;;6.13;2.55;;;;;;;12.56;82.39;96221.03;5001423;28;20069;-67
2022/05/31 05:51:28;;;;;;;4.93;1.67;;;;;;;13.13;79.59;96223.75;4995140;28;20069;-67
2022/05/31 05:53:55;;;;;;;6.25;1.83;;;;;;;12.71;81.86;96221.81;4999138;28;20126;-64
2022/05/31 05:56:21;;;;;;;3.50;2.03;;;;;;;12.45;81.52;96218.25;4967166;28;20038;-67
2022/05/31 05:58:46;;;;;;;4.28;1.83;;;;;;;12.22;83.84;96218.63;5009363;28;20046;-66
2022/05/31 06:01:24;;;;;;;4.63;2.10;;;;;;;12.28;84.87;96230.81;5014405;28;20042;-66
2022/05/31 06:03:52;;;;;;;2.95;1.83;;;;;;;13.39;78.38;96225.28;4999217;28;20387;-65
2022/05/31 06:06:18;;;;;;;3.20;1.85;;;;;;;13.18;79.30;96225.31;4989425;28;20045;-68
2022/05/31 06:09:03;;;;;;;3.88;1.85;;;;;;;12.99;80.43;96216.31;5002146;28;20117;-67
2022/05/31 06:11:38;;;;;;;3.13;2.25;;;;;;;13.01;80.91;96230.44;4998252;28;20038;-68
2022/05/31 06:14:15;;;;;;;7.82;1.88;;;;;;;13.26;79.89;96243.38;4998945;28;20038;-65
2022/05/31 06:16:46;;;;;;;4.28;2.45;;;;;;;13.26;81.38;96237.09;5010531;28;20463;-66
2022/05/31 06:19:17;;;;;;;5.65;2.10;;;;;;;13.52;79.69;96238.63;4995144;28;20054;-67
2022/05/31 06:21:44;;;;;;;3.28;1.67;;;;;;;13.88;77.52;96238.50;5000773;28;20038;-67
2022/05/31 06:24:10;;;;;;;9.23;1.80;;;;;;;13.30;83.36;96235.91;4995169;28;20033;-66
2022/05/31 06:26:36;;;;;;;3.00;2.08;;;;;;;13.58;81.77;96228.81;5015932;28;20037;-65
2022/05/31 06:29:03;;;;;;;5.35;2.05;;;;;;;13.14;84.71;96221.78;5018602;28;20376;-67
2022/05/31 06:31:29;;;;;;;3.42;2.10;;;;;;;13.31;86.35;96223.75;5000606;28;20037;-66
2022/05/31 06:33:54;;;;;;;5.18;2.30;;;;;;;14.31;82.81;96216.28;5002617;28;20037;-66
2022/05/31 06:36:20;;;;;;;3.13;1.90;;;;;;;15.98;73.01;96226.22;4995774;28;20129;-67
2022/05/31 06:38:45;;;;;;;3.85;1.80;;;;;;;16.96;67.95;96226.44;5014691;28;20042;-65
2022/05/31 06:41:11;;;;;;;4.57;1.70;;;;;;;20.00;56.37;96220.13;5002742;28;20049;-66
2022/05/31 06:43:36;;;;;;;4.10;1.40;;;;;;;19.28;56.82;96218.47;5004174;28;20100;-65
2022/05/31 06:46:06;;;;;;;4.78;1.50;;;;;;;19.68;55.45;96229.34;5002274;28;20119;-66
2022/05/31 06:48:32;;;;;;;4.30;1.60;;;;;;;20.43;54.09;96230.00;5003646;28;20586;-66
2022/05/31 06:50:58;;;;;;;3.03;1.30;;;;;;;21.20;49.47;96232.00;5005261;28;20128;-66
2022/05/31 06:58:51;;;;;;;5.07;1.48;;;;;;;21.60;47.82;96231.47;5004135;28;20049;-65
2022/05/31 07:01:17;;;;;;;3.33;1.55;;;;;;;19.28;55.70;96240.69;4999214;28;20038;-66
2022/05/31 07:03:42;;;;;;;4.82;1.98;;;;;;;19.48;55.96;96252.47;5004776;28;20053;-66
2022/05/31 07:06:07;;;;;;;4.18;1.95;;;;;;;16.71;65.02;96234.31;4998914;28;20156;-68
2022/05/31 07:08:33;;;;;;;5.63;2.00;;;;;;;16.03;72.03;96231.28;5003931;28;20053;-66
2022/05/31 07:11:01;;;;;;;11.43;2.80;;;;;;;16.89;68.84;96223.00;5002208;28;20042;-66
2022/05/31 07:13:26;;;;;;;4.78;1.73;;;;;;;16.43;70.14;96228.78;5001657;28;20479;-65
2022/05/31 07:15:52;;;;;;;7.50;2.75;;;;;;;17.30;67.76;96230.97;5003480;28;20129;-64
2022/05/31 07:18:19;;;;;;;5.00;1.88;;;;;;;17.81;64.75;96228.09;5000150;28;20080;-66
2022/05/31 07:20:44;;;;;;;4.53;2.15;;;;;;;16.41;69.00;96228.41;5010670;28;20037;-65
2022/05/31 07:23:10;;;;;;;6.68;1.95;;;;;;;16.11;72.63;96229.22;5016066;28;20046;-65
2022/05/31 07:25:36;;;;;;;3.90;2.20;;;;;;;15.66;73.13;96230.13;5004298;28;20042;-64
2022/05/31 07:28:02;;;;;;;5.45;2.15;;;;;;;16.34;70.42;96230.50;5001609;28;20570;-65
2022/05/31 07:30:27;;;;;;;4.95;2.03;;;;;;;17.42;66.48;96229.59;5002960;28;20046;-64
2022/05/31 07:32:53;;;;;;;7.50;2.55;;;;;;;18.50;61.71;96227.47;5004082;28;20046;-63
2022/05/31 07:35:18;;;;;;;6.93;2.60;;;;;;;18.36;60.26;96228.56;4999135;28;20038;-65
2022/05/31 07:37:43;;;;;;;3.78;1.75;;;;;;;18.09;61.38;96217.66;5003043;28;20103;-64
2022/05/31 07:40:09;;;;;;;3.45;2.10;;;;;;;16.51;68.11;96232.25;4993271;28;20373;-64
2022/05/31 07:42:35;;;;;;;4.53;1.90;;;;;;;17.58;65.72;96234.47;5006745;28;20045;-65
2022/05/31 07:45:00;;;;;;;4.75;2.33;;;;;;;18.09;61.71;96235.06;4985701;28;20112;-64
2022/05/31 07:47:26;;;;;;;4.72;2.22;;;;;;;18.57;61.29;96229.31;4998528;28;20050;-64
2022/05/31 07:49:51;;;;;;;3.50;1.50;;;;;;;19.80;56.16;96225.06;5002971;28;20049;-65
2022/05/31 07:52:18;;;;;;;5.38;1.90;;;;;;;20.61;52.42;96223.91;4997996;28;20046;-65
2022/05/31 07:54:43;;;;;;;5.82;1.83;;;;;;;19.02;56.18;96223.88;5003229;28;20041;-64
2022/05/31 07:58:30;;;;;;;6.43;1.70;;;;;;;19.84;55.81;96232.09;4997659;28;20049;-64
2022/05/31 07:59:54;;;;;;;4.10;1.95;;;;;;;21.56;50.66;96219.69;4995563;28;20264;-65
2022/05/31 08:02:19;;;;;;;4.05;1.73;;;;;;;23.10;46.15;96218.69;4992371;28;20108;-65
2022/05/31 08:04:45;;;;;;;3.30;1.52;;;;;;;23.56;43.79;96212.44;5004016;28;20119;-66
2022/05/31 08:07:10;;;;;;;3.80;1.52;;;;;;;23.18;43.80;96214.38;4979386;28;20042;-66
2022/05/31 08:09:35;;;;;;;5.68;1.70;;;;;;;22.07;47.40;96221.44;5003724;28;20053;-64
2022/05/31 08:12:01;;;;;;;8.30;1.38;;;;;;;20.87;49.79;96225.91;5004560;28;20046;-64
2022/05/31 08:14:26;;;;;;;3.92;1.60;;;;;;;21.82;48.68;96222.34;4998246;28;20050;-64
2022/05/31 08:16:52;;;;;;;4.90;1.80;;;;;;;21.23;49.85;96219.97;5002324;28;20046;-65
2022/05/31 08:19:18;;;;;;;3.83;1.63;;;;;;;22.53;46.35;96205.78;4998671;28;20149;-64
2022/05/31 08:21:43;;;;;;;4.88;1.60;;;;;;;23.54;42.10;96212.88;5003089;28;20095;-65
2022/05/31 08:24:09;;;;;;;8.38;1.90;;;;;;;22.80;42.96;96212.72;5000760;28;20037;-64
2022/05/31 08:26:35;;;;;;;6.50;1.67;;;;;;;22.83;43.51;96209.00;5002096;28;20041;-66
2022/05/31 08:29:00;;;;;;;3.35;1.50;;;;;;;23.26;43.17;96201.69;5002897;28;20042;-66
2022/05/31 08:31:31;;;;;;;7.50;1.77;;;;;;;23.89;41.60;96209.78;4997820;28;20038;-66
2022/05/31 08:33:57;;;;;;;6.13;1.70;;;;;;;24.32;40.59;96209.88;5003393;28;20119;-64
2022/05/31 08:36:22;;;;;;;3.88;1.40;;;;;;;23.83;41.45;96220.06;4996735;28;20767;-66
2022/05/31 08:38:48;;;;;;;5.78;1.58;;;;;;;24.20;40.73;96218.00;5002271;28;20042;-64
2022/05/31 08:41:30;;;;;;;3.75;1.50;;;;;;;23.89;41.38;96214.63;4998115;28;20049;-66
2022/05/31 08:44:03;;;;;;;3.40;1.80;;;;;;;22.22;45.27;96222.50;5011550;28;20047;-66
2022/05/31 08:47:01;;;;;;;4.22;1.70;;;;;;;22.65;44.62;96212.50;5010515;28;20119;-65
2022/05/31 08:52:51;;;;;;;4.28;1.30;;;;;;;23.08;44.63;96215.59;4993832;28;20137;-65
2022/05/31 08:58:13;;;;;;;6.05;1.90;;;;;;;23.03;46.21;96221.75;4999018;28;20034;-64
2022/05/31 09:00:42;;;;;;;6.15;2.35;;;;;;;22.90;46.02;96225.47;4986005;28;20065;-66
2022/05/31 09:03:14;;;;;;;5.63;2.67;;;;;;;23.54;44.82;96221.28;4992260;28;20491;-65
2022/05/31 09:05:48;;;;;;;4.25;1.55;;;;;;;22.71;46.29;96226.63;4999377;28;20057;-65
2022/05/31 09:08:44;;;;;;;5.57;2.55;;;;;;;23.34;46.78;96224.50;4997515;28;20184;-65
2022/05/31 09:11:32;;;;;;;3.60;1.92;;;;;;;23.17;47.24;96221.19;5004893;28;20050;-63
2022/05/31 09:14:28;;;;;;;9.40;4.13;;;;;;;22.96;47.57;96225.63;4984687;28;20124;-64
2022/05/31 09:17:09;;;;;;;3.78;1.33;;;;;;;23.21;46.27;96227.44;4998380;28;20042;-69
2022/05/31 09:19:54;;;;;;;9.15;2.90;;;;;;;23.90;43.14;96216.94;4997958;28;20376;-63
2022/05/31 09:22:19;;;;;;;5.82;1.98;;;;;;;23.85;43.76;96214.78;4997426;28;20128;-65
2022/05/31 09:24:46;;;;;;;3.17;1.25;;;;;;;24.15;42.82;96223.47;5002602;28;20129;-64
2022/05/31 09:27:32;;;;;;;3.40;1.40;;;;;;;24.40;41.65;96217.50;4996627;28;20050;-65
2022/05/31 09:30:10;;;;;;;5.15;1.27;;;;;;;24.78;40.04;96221.75;5005500;28;20041;-64
2022/05/31 09:32:38;;;;;;;6.00;1.23;;;;;;;24.28;40.68;96224.03;4983511;28;20133;-64
2022/05/31 09:35:40;;;;;;;4.70;1.20;;;;;;;24.37;40.10;96221.22;5012855;28;20034;-65
2022/05/31 09:38:18;;;;;;;3.95;1.20;;;;;;;25.34;38.00;96221.47;5006792;28;20499;-64
2022/05/31 09:40:48;;;;;;;2.75;1.20;;;;;;;25.61;37.02;96219.75;5002482;28;20046;-64
2022/05/31 09:43:30;;;;;;;4.88;1.30;;;;;;;25.27;37.12;96219.81;4996351;28;20041;-64
2022/05/31 09:46:09;;;;;;;6.25;1.77;;;;;;;24.36;38.58;96216.88;5001013;28;20099;-63
2022/05/31 09:48:44;;;;;;;4.75;2.10;;;;;;;23.93;39.13;96213.22;5001552;28;20046;-62
2022/05/31 09:51:16;;;;;;;3.53;1.30;;;;;;;23.75;41.61;96208.41;4996890;28;20422;-64
2022/05/31 09:59:13;;;;;;;3.47;1.73;;;;;;;24.39;41.34;96215.16;4990216;28;20058;-64
2022/05/31 10:01:46;;;;;;;10.13;2.50;;;;;;;23.06;44.02;96216.06;4993743;28;20053;-65
2022/05/31 10:04:33;;;;;;;11.20;3.03;;;;;;;22.93;45.18;96209.03;5003162;28;20088;-64
2022/05/31 10:07:02;;;;;;;4.68;1.98;;;;;;;23.41;44.98;96207.44;4989432;28;20089;-63
2022/05/31 10:09:39;;;;;;;3.50;1.67;;;;;;;23.25;43.36;96202.16;4988639;28;20085;-64
2022/05/31 10:12:11;;;;;;;8.60;1.80;;;;;;;23.55;44.00;96200.47;4980989;28;20038;-65
2022/05/31 10:14:41;;;;;;;3.78;1.70;;;;;;;23.82;42.88;96202.53;4992104;28;20081;-63
2022/05/31 10:17:32;;;;;;;5.65;2.38;;;;;;;23.28;43.20;96204.78;4992178;28;20030;-64
2022/05/31 10:20:12;;;;;;;10.60;2.45;;;;;;;22.88;45.52;96196.44;5001084;28;20065;-64
2022/05/31 10:22:39;;;;;;;6.35;3.38;;;;;;;22.66;46.24;96197.28;5003037;28;20053;-64
2022/05/31 10:25:25;;;;;;;5.63;2.22;;;;;;;23.20;44.36;96203.53;4991087;28;20120;-65
2022/05/31 10:28:02;;;;;;;6.60;2.13;;;;;;;23.27;45.63;96194.06;4996704;28;20575;-63
2022/05/31 10:30:29;;;;;;;7.57;1.80;;;;;;;23.43;45.46;96191.00;4995916;28;20685;-64
2022/05/31 10:33:06;;;;;;;6.22;1.83;;;;;;;23.47;42.06;96197.19;4989042;28;20042;-64
2022/05/31 10:35:38;;;;;;;6.28;1.45;;;;;;;22.96;39.68;96194.91;4990228;28;20518;-63
2022/05/31 10:38:23;;;;;;;5.90;2.05;;;;;;;23.25;40.32;96182.59;4998992;28;20038;-65
2022/05/31 10:40:57;;;;;;;5.47;1.73;;;;;;;23.74;42.67;96192.09;4992173;28;20066;-64
2022/05/31 10:43:43;;;;;;;5.63;1.70;;;;;;;23.87;41.14;96184.31;4985416;28;20377;-65
2022/05/31 10:46:26;;;;;;;4.50;1.50;;;;;;;23.93;41.23;96190.06;4990117;28;20053;-64
2022/05/31 10:48:55;;;;;;;5.15;1.35;;;;;;;24.43;34.31;96194.16;4992489;28;20042;-66
2022/05/31 10:51:46;;;;;;;5.30;1.38;;;;;;;24.06;35.15;96182.28;4991814;28;20046;-65
2022/05/31 10:54:23;;;;;;;3.10;1.10;;;;;;;24.20;36.12;96180.84;4986765;28;20033;-65
2022/05/31 10:57:14;;;;;;;3.80;1.30;;;;;;;24.40;35.36;96189.50;4991512;28;20061;-66
2022/05/31 10:59:52;;;;;;;5.50;1.63;;;;;;;24.16;35.99;96183.78;4969252;28;20141;-66
2022/05/31 11:02:42;;;;;;;3.60;1.02;;;;;;;24.42;34.14;96189.03;4983894;28;20044;-65
2022/05/31 11:05:14;;;;;;;3.47;1.00;;;;;;;23.72;35.49;96189.75;4983204;28;20447;-64
2022/05/31 11:13:47;;;;;;;3.20;1.20;;;;;;;23.74;35.25;96183.69;4985494;28;20153;-66
2022/05/31 11:16:28;;;;;;;5.68;1.30;;;;;;;23.97;35.42;96190.69;4988363;28;20046;-66
2022/05/31 11:18:59;;;;;;;6.28;1.42;;;;;;;23.87;36.64;96191.94;4981992;28;20799;-66
2022/05/31 11:21:48;;;;;;;3.47;0.93;;;;;;;23.97;36.72;96193.50;4989421;28;20399;-66
2022/05/31 11:24:17;;;;;;;6.05;1.30;;;;;;;23.97;37.20;96190.69;4988719;28;20189;-64
2022/05/31 11:26:48;;;;;;;2.97;1.08;;;;;;;24.05;36.66;96192.69;5002075;28;20050;-66
2022/05/31 11:29:51;;;;;;;5.03;1.30;;;;;;;24.29;36.71;96208.81;4993835;28;20045;-64
2022/05/31 11:32:24;;;;;;;3.17;1.15;;;;;;;24.47;36.46;96199.59;4986958;28;20493;-66
2022/05/31 11:35:09;;;;;;;5.88;1.20;;;;;;;24.03;37.18;96202.78;5009275;28;20037;-68
2022/05/31 11:38:01;;;;;;;3.75;1.20;;;;;;;23.22;38.74;96205.88;4997387;28;20450;-67
2022/05/31 11:40:41;;;;;;;3.78;1.00;;;;;;;23.41;38.66;96213.03;4992298;28;20045;-65
2022/05/31 11:43:21;;;;;;;8.90;1.40;;;;;;;23.52;38.09;96214.59;4985480;28;21497;-65
2022/05/31 11:46:09;;;;;;;5.53;1.15;;;;;;;23.20;39.54;96214.69;4990510;28;20065;-64
2022/05/31 11:48:50;;;;;;;5.88;1.35;;;;;;;22.50;41.12;96217.84;4988341;28;20046;-64
2022/05/31 11:51:34;;;;;;;4.55;1.42;;;;;;;22.56;41.98;96218.03;4984713;28;20627;-66
2022/05/31 11:54:32;;;;;;;6.60;1.40;;;;;;;22.37;42.09;96224.78;4994335;28;20052;-65
2022/05/31 11:57:07;;;;;;;8.10;1.20;;;;;;;21.98;42.30;96224.94;4974126;28;20069;-64
2022/05/31 11:59:41;;;;;;;6.38;1.50;;;;;;;22.20;42.21;96222.16;4992043;28;20080;-66
2022/05/31 12:02:34;;;;;;;8.38;1.70;;;;;;;21.95;43.87;96228.66;4991651;28;20053;-64
2022/05/31 12:05:11;;;;;;;3.67;1.20;;;;;;;22.07;44.48;96222.22;5011807;28;20398;-67
2022/05/31 12:07:48;;;;;;;11.90;2.00;;;;;;;21.83;46.25;96230.28;4990274;28;20054;-67
2022/05/31 12:10:22;;;;;;;7.15;1.38;;;;;;;22.18;46.09;96229.41;4983000;28;20049;-66
2022/05/31 12:12:48;;;;;;;9.85;1.70;;;;;;;21.47;44.90;96225.94;4989146;28;20046;-66
2022/05/31 12:15:29;;;;;;;4.63;1.20;;;;;;;21.53;42.38;96240.06;4993848;28;20049;-65
2022/05/31 12:18:13;;;;;;;5.18;1.23;;;;;;;21.32;42.86;96244.31;4987203;28;20046;-65